createdAt,value
2019-01-31T00:02:23.962Z,19.57
2019-01-31T00:04:58.194Z,21.17
2019-01-31T00:07:29.746Z,21.30
2019-01-31T00:10:24.081Z,22.30
2019-01-31T00:13:23.093Z,20.20
2019-01-31T00:16:14.193Z,21.00
2019-01-31T00:18:54.446Z,20.20
2019-01-31T00:21:25.980Z,20.77
2019-01-31T00:24:06.338Z,20.80
2019-01-31T00:26:43.682Z,20.20
2019-01-31T00:29:51.518Z,19.97
2019-01-31T00:32:56.210Z,19.70
2019-01-31T00:35:30.531Z,20.90
2019-01-31T00:38:23.013Z,21.70
2019-01-31T00:41:03.179Z,22.93
2019-01-31T00:43:52.705Z,21.03
2019-01-31T00:46:42.183Z,21.37
2019-01-31T00:49:13.723Z,21.40
2019-01-31T00:51:51.172Z,21.73
2019-01-31T00:54:28.399Z,24.83
2019-01-31T00:57:08.571Z,23.30
2019-01-31T00:59:49.075Z,21.23
2019-01-31T01:02:47.820Z,20.40
2019-01-31T01:05:25.062Z,21.50
2019-01-31T01:08:02.697Z,19.60
2019-01-31T01:10:49.004Z,16.50
2019-01-31T01:13:32.207Z,14.60
2019-01-31T01:16:09.742Z,15.17
2019-01-31T01:19:16.082Z,13.90
2019-01-31T01:21:53.248Z,14.67
2019-01-31T01:24:55.431Z,14.60
2019-01-31T01:27:29.715Z,13.67
2019-01-31T01:30:19.594Z,15.40
2019-01-31T01:32:57.026Z,13.30
2019-01-31T01:35:28.573Z,12.33
2019-01-31T01:38:09.303Z,11.97
2019-01-31T01:41:01.669Z,10.90
2019-01-31T01:43:36.302Z,9.50
2019-01-31T01:46:26.054Z,10.90
2019-01-31T01:49:09.922Z,13.97
2019-01-31T01:51:41.472Z,11.43
2019-01-31T01:54:38.737Z,10.50
2019-01-31T01:57:10.266Z,12.20
2019-01-31T01:59:47.149Z,11.47
2019-01-31T02:02:39.976Z,12.17
2019-01-31T02:05:20.615Z,10.07
2019-01-31T02:07:58.105Z,11.77
2019-01-31T02:10:50.586Z,12.87
2019-01-31T02:13:25.097Z,12.00
2019-01-31T02:16:05.670Z,11.80
2019-01-31T02:18:52.347Z,9.60
2019-01-31T02:21:35.673Z,8.30
2019-01-31T02:24:16.361Z,9.13
2019-01-31T02:26:59.734Z,8.07
2019-01-31T02:29:37.039Z,8.00
2019-01-31T02:32:41.949Z,7.87
2019-01-31T02:35:22.198Z,6.77
2019-01-31T02:37:56.735Z,7.03
2019-01-31T02:40:39.999Z,7.10
2019-01-31T02:43:20.261Z,7.57
2019-01-31T02:45:54.563Z,7.20
2019-01-31T02:48:31.338Z,9.83
2019-01-31T02:51:34.850Z,6.80
2019-01-31T02:54:27.838Z,6.10
2019-01-31T02:57:04.891Z,6.60
2019-01-31T03:00:02.196Z,5.70
2019-01-31T03:02:39.541Z,5.70
2019-01-31T03:05:27.374Z,7.20
2019-01-31T03:08:11.158Z,5.87
2019-01-31T03:10:42.914Z,6.90
2019-01-31T03:13:17.070Z,6.70
2019-01-31T03:16:17.447Z,7.20
2019-01-31T03:19:08.727Z,5.87
2019-01-31T03:21:58.487Z,7.67
2019-01-31T03:24:30.098Z,6.37
2019-01-31T03:27:20.974Z,6.77
2019-01-31T03:30:12.226Z,4.23
2019-01-31T03:32:52.744Z,4.10
2019-01-31T03:35:26.928Z,3.57
2019-01-31T03:37:58.466Z,4.10
2019-01-31T03:40:50.977Z,7.47
2019-01-31T03:43:40.784Z,5.30
2019-01-31T03:46:15.158Z,5.00
2019-01-31T03:49:06.562Z,5.33
2019-01-31T03:51:46.878Z,5.23
2019-01-31T03:54:34.974Z,6.00
2019-01-31T03:57:21.302Z,5.10
2019-01-31T03:59:52.831Z,4.60
2019-01-31T04:02:30.086Z,5.93
2019-01-31T04:05:17.992Z,5.50
2019-01-31T04:07:46.464Z,6.17
2019-01-31T04:10:19.072Z,5.40
2019-01-31T04:12:45.407Z,4.23
2019-01-31T04:15:14.012Z,4.50
2019-01-31T04:17:42.463Z,5.13
2019-01-31T04:20:11.165Z,4.30
2019-01-31T04:22:39.609Z,4.03
2019-01-31T04:25:08.263Z,4.07
2019-01-31T04:27:36.710Z,4.27
2019-01-31T04:30:08.254Z,4.37
2019-01-31T04:32:36.717Z,3.60
2019-01-31T04:35:06.479Z,3.83
2019-01-31T04:37:35.018Z,3.70
2019-01-31T04:40:04.630Z,4.03
2019-01-31T04:42:33.098Z,4.70
2019-01-31T04:45:01.549Z,4.23
2019-01-31T04:47:30.017Z,3.53
2019-01-31T04:49:58.459Z,3.67
2019-01-31T04:52:26.960Z,3.50
2019-01-31T04:54:55.460Z,4.97
2019-01-31T04:57:23.980Z,3.70
2019-01-31T04:59:52.515Z,4.40
2019-01-31T05:02:20.968Z,4.83
2019-01-31T05:04:49.497Z,4.17
2019-01-31T05:07:17.941Z,4.70
2019-01-31T05:09:46.397Z,4.40
2019-01-31T05:12:14.927Z,4.70
2019-01-31T05:14:43.386Z,4.73
2019-01-31T05:17:11.855Z,5.47
2019-01-31T05:19:40.305Z,4.13
2019-01-31T05:22:08.766Z,4.40
2019-01-31T05:24:37.221Z,4.67
2019-01-31T05:27:05.822Z,3.57
2019-01-31T05:29:34.288Z,3.60
2019-01-31T05:32:02.877Z,3.90
2019-01-31T05:34:31.336Z,4.50
2019-01-31T05:36:59.782Z,4.33
2019-01-31T05:39:28.240Z,3.77
2019-01-31T05:41:56.822Z,2.70
2019-01-31T05:44:25.412Z,3.70
2019-01-31T05:46:53.907Z,3.70
2019-01-31T05:49:22.365Z,3.10
2019-01-31T05:51:50.816Z,3.00
2019-01-31T05:54:19.500Z,3.80
2019-01-31T05:56:47.990Z,3.90
2019-01-31T05:59:16.504Z,4.40
2019-01-31T06:01:44.964Z,4.67
2019-01-31T06:04:13.414Z,3.87
2019-01-31T06:06:41.875Z,4.03
2019-01-31T06:09:10.462Z,3.40
2019-01-31T06:11:38.925Z,3.90
2019-01-31T06:14:07.582Z,3.97
2019-01-31T06:16:36.109Z,3.40
2019-01-31T06:19:04.810Z,3.87
2019-01-31T06:21:33.276Z,5.20
2019-01-31T06:24:01.734Z,4.30
2019-01-31T06:26:30.286Z,3.90
2019-01-31T06:28:58.743Z,2.90
2019-01-31T06:31:27.190Z,4.10
2019-01-31T06:33:55.647Z,3.07
2019-01-31T06:36:24.098Z,3.60
2019-01-31T06:38:52.570Z,3.83
2019-01-31T06:41:21.014Z,2.67
2019-01-31T06:43:49.474Z,3.00
2019-01-31T06:46:17.935Z,3.67
2019-01-31T06:48:46.392Z,3.30
2019-01-31T06:51:14.850Z,4.40
2019-01-31T06:53:43.295Z,3.60
2019-01-31T06:56:11.743Z,3.50
2019-01-31T06:58:41.150Z,3.93
2019-01-31T07:01:09.899Z,3.63
2019-01-31T07:03:38.371Z,3.87
2019-01-31T07:06:06.954Z,4.00
2019-01-31T07:08:35.413Z,3.13
2019-01-31T07:11:03.930Z,3.20
2019-01-31T07:13:33.960Z,3.53
2019-01-31T07:16:02.683Z,3.30
2019-01-31T07:18:31.174Z,3.17
2019-01-31T07:20:59.718Z,4.13
2019-01-31T07:23:28.235Z,3.93
2019-01-31T07:25:56.702Z,3.50
2019-01-31T07:28:25.240Z,3.30
2019-01-31T07:30:53.686Z,3.63
2019-01-31T07:33:22.146Z,4.37
2019-01-31T07:35:52.161Z,4.10
2019-01-31T07:38:20.974Z,4.77
2019-01-31T07:40:49.483Z,4.17
2019-01-31T07:43:17.999Z,4.70
2019-01-31T07:45:46.522Z,4.50
2019-01-31T07:48:14.986Z,4.60
2019-01-31T07:50:43.435Z,4.63
2019-01-31T07:53:12.930Z,4.10
2019-01-31T07:55:41.586Z,4.10
2019-01-31T07:58:10.045Z,5.13
2019-01-31T08:00:38.566Z,5.47
2019-01-31T08:03:07.195Z,4.97
2019-01-31T08:05:35.646Z,4.63
2019-01-31T08:08:05.143Z,5.30
2019-01-31T08:10:39.055Z,4.63
2019-01-31T08:13:07.650Z,4.77
2019-01-31T08:15:36.233Z,4.13
2019-01-31T08:18:05.218Z,4.97
2019-01-31T08:20:33.817Z,4.50
2019-01-31T08:23:02.329Z,5.13
2019-01-31T08:25:30.950Z,4.67
2019-01-31T08:27:59.466Z,4.57
2019-01-31T08:30:33.998Z,4.50
2019-01-31T08:33:02.458Z,4.70
2019-01-31T08:35:30.981Z,4.13
2019-01-31T08:37:59.563Z,5.43
2019-01-31T08:40:28.026Z,4.53
2019-01-31T08:42:56.486Z,6.10
2019-01-31T08:45:25.001Z,10.10
2019-01-31T08:47:53.626Z,8.80
2019-01-31T08:50:27.846Z,6.83
2019-01-31T08:52:56.458Z,7.03
2019-01-31T08:55:24.913Z,5.80
2019-01-31T08:57:53.345Z,4.60
2019-01-31T09:00:24.735Z,4.67
2019-01-31T09:02:53.266Z,4.90
2019-01-31T09:05:21.790Z,4.43
2019-01-31T09:07:50.506Z,7.17
2019-01-31T09:10:24.480Z,6.50
2019-01-31T09:12:53.001Z,7.63
2019-01-31T09:15:23.862Z,6.10
2019-01-31T09:17:52.646Z,7.07
2019-01-31T09:20:33.078Z,7.30
2019-01-31T09:23:13.355Z,7.00
2019-01-31T09:26:01.410Z,7.20
2019-01-31T09:28:44.286Z,6.70
2019-01-31T09:31:31.042Z,6.40
2019-01-31T09:34:10.809Z,5.90
2019-01-31T09:36:42.350Z,6.60
2019-01-31T09:39:30.576Z,7.00
2019-01-31T09:42:26.800Z,6.80
2019-01-31T09:44:53.410Z,6.80
2019-01-31T09:47:46.158Z,6.33
2019-01-31T09:50:38.207Z,6.80
2019-01-31T09:53:24.819Z,6.70
2019-01-31T09:56:14.618Z,6.67
2019-01-31T09:58:52.126Z,6.33
2019-01-31T10:01:32.866Z,6.37
2019-01-31T10:04:22.778Z,6.27
2019-01-31T10:07:17.270Z,7.10
2019-01-31T10:09:51.765Z,7.30
2019-01-31T10:12:39.618Z,6.53
2019-01-31T10:15:23.123Z,6.40
2019-01-31T10:17:54.667Z,5.70
2019-01-31T10:20:32.521Z,5.70
2019-01-31T10:23:16.291Z,5.80
2019-01-31T10:26:13.529Z,5.60
2019-01-31T10:28:54.014Z,6.17
2019-01-31T10:31:48.043Z,5.50
2019-01-31T10:34:45.367Z,6.03
2019-01-31T10:37:28.926Z,4.00
2019-01-31T10:40:00.454Z,4.83
2019-01-31T10:42:34.638Z,4.57
2019-01-31T10:45:24.607Z,4.70
2019-01-31T10:48:07.439Z,4.10
2019-01-31T10:50:44.137Z,3.87
2019-01-31T10:53:21.610Z,3.50
2019-01-31T10:56:18.747Z,4.30
2019-01-31T10:58:59.156Z,4.27
2019-01-31T11:01:54.301Z,3.90
2019-01-31T11:04:54.359Z,4.70
2019-01-31T11:07:34.777Z,4.90
2019-01-31T11:10:36.762Z,5.00
2019-01-31T11:13:20.333Z,4.53
2019-01-31T11:15:54.526Z,4.33
2019-01-31T11:18:37.991Z,4.23
2019-01-31T11:21:21.359Z,4.37
2019-01-31T11:23:55.567Z,4.53
2019-01-31T11:26:33.022Z,5.07
2019-01-31T11:29:23.926Z,4.37
2019-01-31T11:32:04.370Z,4.80
2019-01-31T11:34:47.277Z,4.30
2019-01-31T11:37:30.778Z,4.87
2019-01-31T11:40:24.851Z,5.07
2019-01-31T11:43:12.006Z,4.30
2019-01-31T11:45:50.550Z,4.33
2019-01-31T11:48:49.218Z,4.50
2019-01-31T11:51:41.974Z,4.37
2019-01-31T11:54:13.482Z,4.43
2019-01-31T11:57:05.982Z,5.10
2019-01-31T11:59:34.435Z,4.70
2019-01-31T12:02:03.013Z,5.27
2019-01-31T12:04:31.466Z,5.13
2019-01-31T12:06:59.905Z,5.87
2019-01-31T12:09:28.438Z,6.10
2019-01-31T12:11:56.950Z,5.27
2019-01-31T12:14:25.495Z,4.60
2019-01-31T12:16:54.141Z,5.00
2019-01-31T12:19:22.649Z,5.43
2019-01-31T12:21:51.245Z,5.40
2019-01-31T12:24:19.759Z,8.30
2019-01-31T12:26:48.211Z,4.77
2019-01-31T12:29:16.718Z,5.00
2019-01-31T12:31:45.327Z,7.70
2019-01-31T12:34:13.837Z,7.13
2019-01-31T12:36:42.436Z,6.30
2019-01-31T12:39:11.030Z,4.60
2019-01-31T12:41:39.607Z,6.73
2019-01-31T12:44:08.198Z,5.47
2019-01-31T12:46:36.706Z,5.53
2019-01-31T12:49:05.362Z,4.77
2019-01-31T12:51:33.950Z,4.23
2019-01-31T12:54:02.453Z,4.30
2019-01-31T12:56:30.910Z,4.27
2019-01-31T12:58:59.346Z,4.30
2019-01-31T13:01:27.802Z,4.60
2019-01-31T13:03:56.242Z,4.30
2019-01-31T13:06:24.770Z,4.63
2019-01-31T13:08:53.563Z,4.07
2019-01-31T13:11:22.068Z,5.20
2019-01-31T13:13:50.518Z,4.93
2019-01-31T13:16:18.958Z,25.60
2019-01-31T13:18:47.559Z,32.53
2019-01-31T13:21:16.082Z,5.53
2019-01-31T13:23:44.535Z,5.03
2019-01-31T13:26:13.130Z,5.40
2019-01-31T13:28:41.571Z,5.37
2019-01-31T13:31:10.179Z,7.77
2019-01-31T13:33:38.702Z,5.93
2019-01-31T13:36:10.215Z,6.50
2019-01-31T13:38:38.810Z,8.23
2019-01-31T13:41:07.255Z,5.30
2019-01-31T13:43:35.782Z,7.87
2019-01-31T13:46:05.239Z,7.03
2019-01-31T13:48:33.819Z,7.60
2019-01-31T13:51:03.811Z,6.67
2019-01-31T13:53:32.398Z,6.50
2019-01-31T13:56:00.929Z,8.77
2019-01-31T13:58:29.370Z,6.87
2019-01-31T14:00:57.827Z,8.90
2019-01-31T14:03:26.328Z,9.43
2019-01-31T14:05:54.830Z,9.50
2019-01-31T14:08:23.362Z,11.20
2019-01-31T14:10:51.823Z,11.63
2019-01-31T14:13:20.266Z,13.20
2019-01-31T14:15:49.645Z,12.70
2019-01-31T14:18:18.090Z,11.43
2019-01-31T14:20:46.618Z,12.80
2019-01-31T14:23:15.084Z,12.73
2019-01-31T14:25:43.618Z,13.37
2019-01-31T14:28:12.151Z,13.17
2019-01-31T14:30:40.737Z,13.93
2019-01-31T14:33:10.958Z,14.00
2019-01-31T14:35:39.418Z,13.70
2019-01-31T14:38:07.997Z,14.87
2019-01-31T14:40:36.443Z,15.50
2019-01-31T14:43:05.167Z,14.03
2019-01-31T14:45:33.612Z,13.03
2019-01-31T14:48:02.138Z,13.33
2019-01-31T14:50:35.359Z,14.80
2019-01-31T14:53:03.870Z,16.63
2019-01-31T14:55:32.327Z,13.77
2019-01-31T14:58:00.911Z,15.57
2019-01-31T15:00:33.358Z,13.83
2019-01-31T15:03:01.819Z,13.40
2019-01-31T15:05:30.412Z,14.13
2019-01-31T15:07:59.034Z,15.27
2019-01-31T15:10:29.290Z,14.47
2019-01-31T15:12:58.276Z,12.17
2019-01-31T15:15:26.991Z,13.20
2019-01-31T15:17:55.922Z,11.97
2019-01-31T15:20:37.594Z,12.73
2019-01-31T15:22:59.955Z,12.60
2019-01-31T15:25:28.471Z,14.20
2019-01-31T15:27:56.998Z,13.37
2019-01-31T15:30:31.379Z,12.57
2019-01-31T15:33:00.533Z,13.50
2019-01-31T15:35:29.132Z,13.70
2019-01-31T15:37:57.794Z,13.30
2019-01-31T15:40:29.348Z,14.10
2019-01-31T15:42:57.947Z,15.63
2019-01-31T15:45:26.459Z,16.40
2019-01-31T15:47:55.062Z,17.17
2019-01-31T15:50:23.846Z,17.53
2019-01-31T15:52:52.358Z,18.40
2019-01-31T15:55:26.851Z,17.53
2019-01-31T15:57:55.534Z,18.10
2019-01-31T16:00:37.529Z,18.00
2019-01-31T16:03:07.313Z,19.50
2019-01-31T16:05:35.925Z,18.07
2019-01-31T16:08:05.516Z,21.97
2019-01-31T16:10:34.183Z,19.90
2019-01-31T16:13:02.788Z,21.00
2019-01-31T16:15:31.458Z,19.17
2019-01-31T16:18:00.283Z,20.60
2019-01-31T16:20:28.770Z,18.40
2019-01-31T16:22:57.354Z,17.37
2019-01-31T16:25:25.951Z,16.40
2019-01-31T16:27:54.611Z,18.97
2019-01-31T16:30:23.418Z,17.00
2019-01-31T16:32:52.100Z,17.33
2019-01-31T16:35:20.677Z,18.07
2019-01-31T16:37:50.749Z,16.10
2019-01-31T16:40:19.662Z,15.93
2019-01-31T16:42:48.251Z,16.20
2019-01-31T16:45:17.744Z,17.70
2019-01-31T16:47:46.344Z,16.10
2019-01-31T16:50:21.222Z,17.07
2019-01-31T16:52:49.741Z,15.67
2019-01-31T16:55:21.197Z,15.30
2019-01-31T16:57:49.802Z,15.40
2019-01-31T17:00:29.861Z,16.87
2019-01-31T17:02:58.645Z,16.30
2019-01-31T17:05:29.250Z,16.37
2019-01-31T17:07:57.836Z,15.60
2019-01-31T17:10:26.565Z,17.97
2019-01-31T17:12:55.459Z,17.57
2019-01-31T17:15:24.526Z,18.13
2019-01-31T17:17:53.127Z,17.13
2019-01-31T17:20:27.573Z,17.03
2019-01-31T17:22:56.026Z,17.10
2019-01-31T17:25:24.919Z,18.67
2019-01-31T17:27:53.623Z,17.60
2019-01-31T17:30:24.106Z,19.27
2019-01-31T17:32:53.113Z,18.00
2019-01-31T17:35:21.812Z,19.90
2019-01-31T17:37:50.272Z,18.93
2019-01-31T17:40:24.370Z,19.90
2019-01-31T17:42:52.890Z,18.63
2019-01-31T17:45:30.081Z,19.37
2019-01-31T17:47:52.198Z,19.20
2019-01-31T17:50:20.781Z,19.60
2019-01-31T17:52:49.677Z,20.03
2019-01-31T17:55:20.669Z,20.27
2019-01-31T17:57:49.329Z,20.63
2019-01-31T18:00:24.800Z,19.47
2019-01-31T18:02:53.254Z,19.50
2019-01-31T18:05:21.778Z,19.97
2019-01-31T18:07:50.247Z,19.23
2019-01-31T18:10:23.298Z,18.60
2019-01-31T18:12:52.198Z,20.60
2019-01-31T18:15:20.719Z,18.73
2019-01-31T18:17:49.166Z,18.00
2019-01-31T18:20:19.471Z,18.47
2019-01-31T18:22:47.987Z,19.60
2019-01-31T18:25:17.088Z,18.30
2019-01-31T18:27:45.676Z,18.47
2019-01-31T18:30:23.238Z,18.70
2019-01-31T18:32:52.027Z,18.87
2019-01-31T18:35:20.642Z,18.97
2019-01-31T18:37:49.170Z,17.50
2019-01-31T18:40:25.917Z,18.80
2019-01-31T18:42:54.521Z,19.13
2019-01-31T18:45:25.107Z,19.00
2019-01-31T18:47:53.715Z,17.83
2019-01-31T18:50:30.754Z,17.60
2019-01-31T18:52:59.294Z,18.50
2019-01-31T18:55:28.591Z,19.23
2019-01-31T18:57:57.298Z,20.87
2019-01-31T19:00:34.914Z,19.47
2019-01-31T19:03:03.614Z,19.70
2019-01-31T19:05:32.218Z,22.40
2019-01-31T19:08:00.917Z,23.17
2019-01-31T19:10:29.527Z,23.10
2019-01-31T19:12:58.203Z,22.40
2019-01-31T19:15:27.924Z,21.10
2019-01-31T19:18:05.442Z,22.00
2019-01-31T19:20:31.743Z,22.47
2019-01-31T19:23:02.541Z,24.17
2019-01-31T19:25:32.412Z,21.57
2019-01-31T19:28:01.572Z,23.40
2019-01-31T19:30:35.699Z,24.23
2019-01-31T19:33:05.492Z,24.90
2019-01-31T19:35:34.310Z,24.87
2019-01-31T19:38:02.843Z,25.07
2019-01-31T19:40:33.434Z,22.60
2019-01-31T19:43:02.187Z,22.90
2019-01-31T19:45:39.289Z,22.80
2019-01-31T19:48:07.999Z,22.00
2019-01-31T19:50:36.665Z,24.27
2019-01-31T19:53:05.901Z,22.57
2019-01-31T19:55:34.891Z,23.63
2019-01-31T19:58:03.567Z,21.73
2019-01-31T20:00:32.194Z,23.57
2019-01-31T20:03:00.841Z,24.00
2019-01-31T20:05:29.461Z,22.23
2019-01-31T20:07:58.070Z,23.50
2019-01-31T20:10:29.083Z,23.60
2019-01-31T20:12:57.974Z,23.70
2019-01-31T20:15:26.582Z,22.77
2019-01-31T20:17:55.142Z,21.37
2019-01-31T20:20:25.689Z,23.17
2019-01-31T20:22:55.385Z,21.50
2019-01-31T20:25:24.165Z,22.30
2019-01-31T20:27:52.866Z,22.50
2019-01-31T20:30:26.506Z,24.93
2019-01-31T20:32:56.218Z,24.10
2019-01-31T20:35:25.006Z,23.70
2019-01-31T20:37:53.590Z,25.57
2019-01-31T20:40:24.798Z,24.00
2019-01-31T20:42:53.398Z,23.13
2019-01-31T20:45:22.074Z,24.50
2019-01-31T20:47:50.594Z,23.80
2019-01-31T20:50:27.521Z,23.10
2019-01-31T20:52:56.265Z,23.80
2019-01-31T20:55:25.910Z,22.03
2019-01-31T20:57:54.571Z,22.03
2019-01-31T21:00:30.633Z,23.17
2019-01-31T21:02:59.182Z,21.20
2019-01-31T21:05:27.702Z,23.17
2019-01-31T21:07:56.435Z,22.33
2019-01-31T21:10:26.476Z,24.60
2019-01-31T21:12:55.337Z,23.37
2019-01-31T21:15:25.235Z,21.73
2019-01-31T21:17:54.116Z,23.03
2019-01-31T21:20:26.862Z,24.77
2019-01-31T21:22:55.907Z,22.33
2019-01-31T21:25:24.550Z,24.33
2019-01-31T21:27:54.154Z,22.27
2019-01-31T21:30:33.157Z,23.50
2019-01-31T21:33:01.778Z,21.07
2019-01-31T21:35:31.160Z,22.03
2019-01-31T21:37:59.765Z,22.10
2019-01-31T21:40:30.932Z,22.63
2019-01-31T21:42:59.462Z,21.17
2019-01-31T21:45:28.150Z,20.13
2019-01-31T21:47:56.696Z,20.80
2019-01-31T21:50:30.494Z,20.07
2019-01-31T21:52:59.070Z,23.17
2019-01-31T21:55:27.598Z,24.30
2019-01-31T21:57:56.133Z,21.57
2019-01-31T22:00:29.977Z,23.20
2019-01-31T22:02:58.505Z,21.53
2019-01-31T22:05:27.106Z,19.30
2019-01-31T22:07:55.695Z,21.67
2019-01-31T22:10:24.844Z,20.53
2019-01-31T22:12:53.627Z,20.53
2019-01-31T22:15:24.715Z,18.40
2019-01-31T22:17:53.314Z,19.13
2019-01-31T22:20:21.906Z,21.70
2019-01-31T22:22:50.670Z,19.60
2019-01-31T22:25:21.350Z,19.77
2019-01-31T22:27:50.149Z,17.57
2019-01-31T22:30:27.399Z,18.53
2019-01-31T22:32:55.929Z,17.33
2019-01-31T22:35:24.442Z,18.30
2019-01-31T22:37:53.138Z,17.60
2019-01-31T22:40:21.778Z,17.63
2019-01-31T22:42:50.301Z,18.93
2019-01-31T22:45:21.013Z,16.83
2019-01-31T22:47:49.593Z,17.60
2019-01-31T22:50:20.002Z,18.20
2019-01-31T22:52:48.587Z,19.37
2019-01-31T22:55:19.585Z,20.30
2019-01-31T22:57:48.163Z,19.73
2019-01-31T23:00:45.566Z,20.27
2019-01-31T23:03:14.437Z,21.53
2019-01-31T23:05:43.264Z,20.60
2019-01-31T23:08:11.934Z,19.83
2019-01-31T23:10:40.386Z,19.60
2019-01-31T23:13:09.160Z,19.83
2019-01-31T23:15:37.669Z,19.47
2019-01-31T23:18:06.633Z,18.93
2019-01-31T23:20:35.174Z,18.90
2019-01-31T23:23:03.686Z,17.00
2019-01-31T23:25:39.598Z,17.70
2019-01-31T23:28:02.474Z,18.13
2019-01-31T23:30:31.041Z,16.97
2019-01-31T23:32:59.505Z,17.90
2019-01-31T23:35:27.977Z,20.33
2019-01-31T23:37:56.582Z,19.40
2019-01-31T23:40:25.029Z,20.53
2019-01-31T23:42:53.494Z,16.80
2019-01-31T23:45:22.023Z,16.90
2019-01-31T23:47:50.542Z,16.90
2019-01-31T23:50:19.078Z,15.63
2019-01-31T23:52:47.529Z,17.40
2019-01-31T23:55:17.616Z,17.63
2019-01-31T23:57:46.133Z,17.37
